sensor_id;sensor_type;location;lat;lon;timestamp;P1;durP1;ratioP1;P2;durP2;ratioP2
20369;SDS011;10344;47.592;9.600;2022-11-14T00:00:30;7.40;;;6.60;;
20369;SDS011;10344;47.592;9.600;2022-11-14T00:03:01;7.50;;;6.68;;
20369;SDS011;10344;47.592;9.600;2022-11-14T00:05:30;7.45;;;6.70;;
20369;SDS011;10344;47.592;9.600;2022-11-14T00:08:09;7.75;;;6.68;;
20369;SDS011;10344;47.592;9.600;2022-11-14T00:11:01;8.30;;;6.95;;
20369;SDS011;10344;47.592;9.600;2022-11-14T00:13:35;7.40;;;6.57;;
20369;SDS011;10344;47.592;9.600;2022-11-14T00:16:26;8.05;;;7.25;;
20369;SDS011;10344;47.592;9.600;2022-11-14T00:19:15;8.20;;;6.78;;
20369;SDS011;10344;47.592;9.600;2022-11-14T01:08:33;9.57;;;8.10;;
20369;SDS011;10344;47.592;9.600;2022-11-14T01:16:10;10.03;;;8.47;;
20369;SDS011;10344;47.592;9.600;2022-11-14T01:19:07;10.43;;;8.80;;
20369;SDS011;10344;47.592;9.600;2022-11-14T01:21:49;10.90;;;9.23;;
20369;SDS011;10344;47.592;9.600;2022-11-14T01:24:30;11.15;;;9.35;;
20369;SDS011;10344;47.592;9.600;2022-11-14T01:27:08;10.60;;;8.65;;
20369;SDS011;10344;47.592;9.600;2022-11-14T01:29:39;10.00;;;8.65;;
20369;SDS011;10344;47.592;9.600;2022-11-14T01:32:16;10.68;;;8.80;;
20369;SDS011;10344;47.592;9.600;2022-11-14T01:34:46;11.50;;;9.10;;
20369;SDS011;10344;47.592;9.600;2022-11-14T01:37:27;11.95;;;9.80;;
20369;SDS011;10344;47.592;9.600;2022-11-14T01:40:07;12.18;;;9.23;;
20369;SDS011;10344;47.592;9.600;2022-11-14T01:42:37;12.15;;;9.90;;
20369;SDS011;10344;47.592;9.600;2022-11-14T01:48:07;11.27;;;9.25;;
20369;SDS011;10344;47.592;9.600;2022-11-14T01:51:04;10.43;;;9.32;;
20369;SDS011;10344;47.592;9.600;2022-11-14T01:53:40;11.30;;;9.30;;
20369;SDS011;10344;47.592;9.600;2022-11-14T01:56:14;11.95;;;9.25;;
20369;SDS011;10344;47.592;9.600;2022-11-14T01:58:53;12.30;;;10.10;;
20369;SDS011;10344;47.592;9.600;2022-11-14T02:01:29;11.93;;;9.77;;
20369;SDS011;10344;47.592;9.600;2022-11-14T02:04:00;11.90;;;9.13;;
20369;SDS011;10344;47.592;9.600;2022-11-14T02:06:35;12.85;;;9.77;;
20369;SDS011;10344;47.592;9.600;2022-11-14T02:09:15;11.75;;;9.38;;
20369;SDS011;10344;47.592;9.600;2022-11-14T02:11:46;11.25;;;9.43;;
20369;SDS011;10344;47.592;9.600;2022-11-14T02:14:16;11.45;;;9.10;;
20369;SDS011;10344;47.592;9.600;2022-11-14T02:16:56;11.95;;;9.82;;
20369;SDS011;10344;47.592;9.600;2022-11-14T02:19:23;13.32;;;9.98;;
20369;SDS011;10344;47.592;9.600;2022-11-14T02:21:54;12.32;;;9.95;;
20369;SDS011;10344;47.592;9.600;2022-11-14T02:24:24;11.90;;;9.35;;
20369;SDS011;10344;47.592;9.600;2022-11-14T02:26:51;12.13;;;9.60;;
20369;SDS011;10344;47.592;9.600;2022-11-14T02:29:26;11.00;;;9.17;;
20369;SDS011;10344;47.592;9.600;2022-11-14T02:32:12;11.50;;;9.07;;
20369;SDS011;10344;47.592;9.600;2022-11-14T02:34:55;12.70;;;9.93;;
20369;SDS011;10344;47.592;9.600;2022-11-14T02:37:26;11.95;;;9.65;;
20369;SDS011;10344;47.592;9.600;2022-11-14T02:40:14;12.25;;;9.77;;
20369;SDS011;10344;47.592;9.600;2022-11-14T02:43:06;13.93;;;10.35;;
20369;SDS011;10344;47.592;9.600;2022-11-14T02:45:36;11.32;;;9.70;;
20369;SDS011;10344;47.592;9.600;2022-11-14T02:48:10;13.57;;;9.82;;
20369;SDS011;10344;47.592;9.600;2022-11-14T02:50:38;12.32;;;10.35;;
20369;SDS011;10344;47.592;9.600;2022-11-14T02:53:06;12.70;;;10.20;;
20369;SDS011;10344;47.592;9.600;2022-11-14T02:55:43;12.55;;;9.68;;
20369;SDS011;10344;47.592;9.600;2022-11-14T02:58:20;12.18;;;9.93;;
20369;SDS011;10344;47.592;9.600;2022-11-14T03:00:56;12.95;;;10.48;;
20369;SDS011;10344;47.592;9.600;2022-11-14T03:04:05;13.13;;;10.35;;
20369;SDS011;10344;47.592;9.600;2022-11-14T03:06:32;13.23;;;10.38;;
20369;SDS011;10344;47.592;9.600;2022-11-14T03:09:05;12.85;;;10.18;;
20369;SDS011;10344;47.592;9.600;2022-11-14T03:11:30;11.93;;;9.98;;
20369;SDS011;10344;47.592;9.600;2022-11-14T03:13:58;12.25;;;10.27;;
20369;SDS011;10344;47.592;9.600;2022-11-14T03:16:26;10.57;;;9.05;;
20369;SDS011;10344;47.592;9.600;2022-11-14T03:18:53;11.23;;;9.35;;
20369;SDS011;10344;47.592;9.600;2022-11-14T03:21:21;10.88;;;9.05;;
20369;SDS011;10344;47.592;9.600;2022-11-14T03:23:48;10.45;;;8.55;;
20369;SDS011;10344;47.592;9.600;2022-11-14T03:26:15;11.13;;;8.50;;
20369;SDS011;10344;47.592;9.600;2022-11-14T03:28:44;10.55;;;8.93;;
20369;SDS011;10344;47.592;9.600;2022-11-14T03:31:11;10.48;;;8.77;;
20369;SDS011;10344;47.592;9.600;2022-11-14T03:33:38;9.50;;;8.02;;
20369;SDS011;10344;47.592;9.600;2022-11-14T03:36:04;8.55;;;7.43;;
20369;SDS011;10344;47.592;9.600;2022-11-14T03:38:33;8.65;;;7.68;;
20369;SDS011;10344;47.592;9.600;2022-11-14T03:41:03;8.02;;;7.13;;
20369;SDS011;10344;47.592;9.600;2022-11-14T03:43:31;8.52;;;7.40;;
20369;SDS011;10344;47.592;9.600;2022-11-14T03:45:59;9.55;;;7.32;;
20369;SDS011;10344;47.592;9.600;2022-11-14T03:48:26;8.93;;;7.50;;
20369;SDS011;10344;47.592;9.600;2022-11-14T03:50:52;8.52;;;7.63;;
20369;SDS011;10344;47.592;9.600;2022-11-14T03:53:23;9.35;;;7.75;;
20369;SDS011;10344;47.592;9.600;2022-11-14T03:55:49;9.55;;;7.88;;
20369;SDS011;10344;47.592;9.600;2022-11-14T03:58:34;8.90;;;7.72;;
20369;SDS011;10344;47.592;9.600;2022-11-14T04:01:31;8.52;;;7.10;;
20369;SDS011;10344;47.592;9.600;2022-11-14T04:03:58;8.93;;;7.75;;
20369;SDS011;10344;47.592;9.600;2022-11-14T04:06:24;8.57;;;7.68;;
20369;SDS011;10344;47.592;9.600;2022-11-14T04:08:58;7.70;;;6.90;;
20369;SDS011;10344;47.592;9.600;2022-11-14T04:11:24;8.23;;;7.35;;
20369;SDS011;10344;47.592;9.600;2022-11-14T04:13:53;7.88;;;7.07;;
20369;SDS011;10344;47.592;9.600;2022-11-14T04:16:23;8.05;;;7.00;;
20369;SDS011;10344;47.592;9.600;2022-11-14T04:18:51;7.80;;;7.00;;
20369;SDS011;10344;47.592;9.600;2022-11-14T04:21:20;7.88;;;6.68;;
20369;SDS011;10344;47.592;9.600;2022-11-14T04:23:52;7.88;;;7.07;;
20369;SDS011;10344;47.592;9.600;2022-11-14T04:26:29;7.43;;;6.65;;
20369;SDS011;10344;47.592;9.600;2022-11-14T04:29:39;9.25;;;7.15;;
20369;SDS011;10344;47.592;9.600;2022-11-14T04:32:18;7.32;;;6.57;;
20369;SDS011;10344;47.592;9.600;2022-11-14T04:35:04;7.37;;;6.57;;
20369;SDS011;10344;47.592;9.600;2022-11-14T04:37:44;7.07;;;6.40;;
20369;SDS011;10344;47.592;9.600;2022-11-14T04:40:28;6.37;;;5.73;;
20369;SDS011;10344;47.592;9.600;2022-11-14T04:43:20;8.18;;;6.55;;
20369;SDS011;10344;47.592;9.600;2022-11-14T04:45:52;7.17;;;6.47;;
20369;SDS011;10344;47.592;9.600;2022-11-14T04:48:40;7.10;;;6.40;;
20369;SDS011;10344;47.592;9.600;2022-11-14T04:51:34;7.00;;;6.30;;
20369;SDS011;10344;47.592;9.600;2022-11-14T04:54:06;6.97;;;6.28;;
20369;SDS011;10344;47.592;9.600;2022-11-14T04:56:53;6.50;;;5.80;;
20369;SDS011;10344;47.592;9.600;2022-11-14T04:59:20;6.28;;;5.68;;
20369;SDS011;10344;47.592;9.600;2022-11-14T05:01:54;7.15;;;6.43;;
20369;SDS011;10344;47.592;9.600;2022-11-14T05:04:28;6.30;;;5.70;;
20369;SDS011;10344;47.592;9.600;2022-11-14T05:06:56;6.90;;;6.20;;
20369;SDS011;10344;47.592;9.600;2022-11-14T05:09:33;6.50;;;5.85;;
20369;SDS011;10344;47.592;9.600;2022-11-14T05:12:35;6.72;;;6.05;;
20369;SDS011;10344;47.592;9.600;2022-11-14T05:15:32;6.65;;;5.65;;
20369;SDS011;10344;47.592;9.600;2022-11-14T05:18:04;6.60;;;5.60;;
20369;SDS011;10344;47.592;9.600;2022-11-14T05:20:34;7.07;;;6.38;;
20369;SDS011;10344;47.592;9.600;2022-11-14T05:23:28;6.82;;;5.97;;
20369;SDS011;10344;47.592;9.600;2022-11-14T05:26:02;6.38;;;5.78;;
20369;SDS011;10344;47.592;9.600;2022-11-14T05:28:40;6.43;;;5.78;;
20369;SDS011;10344;47.592;9.600;2022-11-14T05:31:23;6.13;;;5.32;;
20369;SDS011;10344;47.592;9.600;2022-11-14T05:33:48;6.50;;;5.88;;
20369;SDS011;10344;47.592;9.600;2022-11-14T05:36:19;5.80;;;5.20;;
20369;SDS011;10344;47.592;9.600;2022-11-14T05:38:46;6.32;;;5.25;;
20369;SDS011;10344;47.592;9.600;2022-11-14T05:41:15;5.80;;;5.20;;
20369;SDS011;10344;47.592;9.600;2022-11-14T05:43:47;5.88;;;5.22;;
20369;SDS011;10344;47.592;9.600;2022-11-14T05:46:38;5.30;;;4.80;;
20369;SDS011;10344;47.592;9.600;2022-11-14T05:49:32;5.45;;;4.95;;
20369;SDS011;10344;47.592;9.600;2022-11-14T05:52:12;5.47;;;4.97;;
20369;SDS011;10344;47.592;9.600;2022-11-14T05:55:13;6.03;;;5.43;;
20369;SDS011;10344;47.592;9.600;2022-11-14T05:57:39;5.70;;;4.80;;
20369;SDS011;10344;47.592;9.600;2022-11-14T06:00:09;7.80;;;5.82;;
20369;SDS011;10344;47.592;9.600;2022-11-14T06:02:37;5.87;;;5.27;;
20369;SDS011;10344;47.592;9.600;2022-11-14T06:05:15;5.53;;;4.93;;
20369;SDS011;10344;47.592;9.600;2022-11-14T06:07:54;6.60;;;5.27;;
20369;SDS011;10344;47.592;9.600;2022-11-14T06:10:20;6.28;;;5.68;;
20369;SDS011;10344;47.592;9.600;2022-11-14T06:13:20;6.45;;;5.63;;
20369;SDS011;10344;47.592;9.600;2022-11-14T06:16:08;6.50;;;5.80;;
20369;SDS011;10344;47.592;9.600;2022-11-14T06:18:53;6.25;;;5.65;;
20369;SDS011;10344;47.592;9.600;2022-11-14T06:21:28;6.80;;;6.20;;
20369;SDS011;10344;47.592;9.600;2022-11-14T06:24:19;6.63;;;5.80;;
20369;SDS011;10344;47.592;9.600;2022-11-14T06:27:09;6.90;;;5.65;;
20369;SDS011;10344;47.592;9.600;2022-11-14T06:29:58;5.82;;;5.28;;
20369;SDS011;10344;47.592;9.600;2022-11-14T06:32:35;6.38;;;5.55;;
20369;SDS011;10344;47.592;9.600;2022-11-14T06:35:05;6.43;;;5.82;;
20369;SDS011;10344;47.592;9.600;2022-11-14T06:37:34;6.78;;;6.07;;
20369;SDS011;10344;47.592;9.600;2022-11-14T06:40:13;6.78;;;6.07;;
20369;SDS011;10344;47.592;9.600;2022-11-14T06:43:19;7.17;;;6.37;;
20369;SDS011;10344;47.592;9.600;2022-11-14T06:45:59;6.97;;;6.00;;
20369;SDS011;10344;47.592;9.600;2022-11-14T06:48:56;8.02;;;6.63;;
20369;SDS011;10344;47.592;9.600;2022-11-14T06:51:28;7.65;;;6.85;;
20369;SDS011;10344;47.592;9.600;2022-11-14T06:54:42;8.32;;;7.22;;
20369;SDS011;10344;47.592;9.600;2022-11-14T06:57:20;6.97;;;6.27;;
20369;SDS011;10344;47.592;9.600;2022-11-14T06:59:55;8.73;;;7.40;;
20369;SDS011;10344;47.592;9.600;2022-11-14T07:02:28;7.77;;;6.90;;
20369;SDS011;10344;47.592;9.600;2022-11-14T07:04:54;8.02;;;6.75;;
20369;SDS011;10344;47.592;9.600;2022-11-14T07:43:50;9.18;;;8.13;;
20369;SDS011;10344;47.592;9.600;2022-11-14T07:46:37;10.75;;;9.20;;
20369;SDS011;10344;47.592;9.600;2022-11-14T13:17:32;4.68;;;3.58;;
20369;SDS011;10344;47.592;9.600;2022-11-14T13:34:36;3.15;;;2.50;;
20369;SDS011;10344;47.592;9.600;2022-11-14T13:47:52;2.88;;;2.58;;
20369;SDS011;10344;47.592;9.600;2022-11-14T13:54:30;3.35;;;2.75;;
20369;SDS011;10344;47.592;9.600;2022-11-14T14:34:00;5.35;;;4.50;;
20369;SDS011;10344;47.592;9.600;2022-11-14T14:50:15;5.25;;;4.45;;
20369;SDS011;10344;47.592;9.600;2022-11-14T15:04:01;5.05;;;4.55;;
20369;SDS011;10344;47.592;9.600;2022-11-14T15:20:34;7.28;;;6.15;;
20369;SDS011;10344;47.592;9.600;2022-11-14T15:26:33;7.80;;;6.13;;
20369;SDS011;10344;47.592;9.600;2022-11-14T15:29:05;5.75;;;5.15;;
20369;SDS011;10344;47.592;9.600;2022-11-14T15:34:27;5.75;;;4.63;;
20369;SDS011;10344;47.592;9.600;2022-11-14T15:42:12;4.05;;;3.67;;
20369;SDS011;10344;47.592;9.600;2022-11-14T15:44:53;4.68;;;4.22;;
20369;SDS011;10344;47.592;9.600;2022-11-14T15:47:26;4.30;;;3.90;;
20369;SDS011;10344;47.592;9.600;2022-11-14T15:52:38;5.30;;;4.80;;
20369;SDS011;10344;47.592;9.600;2022-11-14T15:55:19;5.25;;;4.75;;
20369;SDS011;10344;47.592;9.600;2022-11-14T15:57:46;7.75;;;6.60;;
20369;SDS011;10344;47.592;9.600;2022-11-14T16:00:15;6.53;;;5.93;;
20369;SDS011;10344;47.592;9.600;2022-11-14T16:02:56;6.60;;;5.97;;
20369;SDS011;10344;47.592;9.600;2022-11-14T16:05:28;8.13;;;7.28;;
20369;SDS011;10344;47.592;9.600;2022-11-14T16:07:55;7.70;;;7.00;;
20369;SDS011;10344;47.592;9.600;2022-11-14T16:10:22;6.35;;;5.75;;
20369;SDS011;10344;47.592;9.600;2022-11-14T16:12:49;9.00;;;7.47;;
20369;SDS011;10344;47.592;9.600;2022-11-14T16:15:15;8.95;;;8.05;;
20369;SDS011;10344;47.592;9.600;2022-11-14T16:17:43;10.20;;;9.10;;
20369;SDS011;10344;47.592;9.600;2022-11-14T16:20:18;11.68;;;9.70;;
20369;SDS011;10344;47.592;9.600;2022-11-14T16:22:49;9.80;;;8.43;;
20369;SDS011;10344;47.592;9.600;2022-11-14T16:27:44;9.40;;;7.93;;
20369;SDS011;10344;47.592;9.600;2022-11-14T16:30:14;7.25;;;6.55;;
20369;SDS011;10344;47.592;9.600;2022-11-14T16:32:42;7.18;;;6.47;;
20369;SDS011;10344;47.592;9.600;2022-11-14T16:35:19;6.18;;;5.57;;
20369;SDS011;10344;47.592;9.600;2022-11-14T16:37:51;5.78;;;5.18;;
20369;SDS011;10344;47.592;9.600;2022-11-14T16:40:20;5.80;;;5.20;;
20369;SDS011;10344;47.592;9.600;2022-11-14T16:42:48;6.30;;;5.70;;
20369;SDS011;10344;47.592;9.600;2022-11-14T16:45:14;7.22;;;6.47;;
20369;SDS011;10344;47.592;9.600;2022-11-14T16:47:44;5.90;;;5.30;;
20369;SDS011;10344;47.592;9.600;2022-11-14T16:50:09;4.93;;;4.43;;
20369;SDS011;10344;47.592;9.600;2022-11-14T16:52:36;5.30;;;4.80;;
20369;SDS011;10344;47.592;9.600;2022-11-14T16:55:09;4.38;;;3.97;;
20369;SDS011;10344;47.592;9.600;2022-11-14T16:57:35;5.10;;;3.80;;
20369;SDS011;10344;47.592;9.600;2022-11-14T17:00:07;5.03;;;4.53;;
20369;SDS011;10344;47.592;9.600;2022-11-14T17:02:34;5.57;;;5.07;;
20369;SDS011;10344;47.592;9.600;2022-11-14T17:05:00;5.57;;;4.93;;
20369;SDS011;10344;47.592;9.600;2022-11-14T17:07:28;5.60;;;4.67;;
20369;SDS011;10344;47.592;9.600;2022-11-14T17:09:56;5.53;;;5.03;;
20369;SDS011;10344;47.592;9.600;2022-11-14T17:12:25;5.32;;;4.50;;
20369;SDS011;10344;47.592;9.600;2022-11-14T17:14:50;5.93;;;5.28;;
20369;SDS011;10344;47.592;9.600;2022-11-14T17:17:16;5.10;;;4.60;;
20369;SDS011;10344;47.592;9.600;2022-11-14T17:19:41;6.03;;;5.43;;
20369;SDS011;10344;47.592;9.600;2022-11-14T17:22:12;6.53;;;5.30;;
20369;SDS011;10344;47.592;9.600;2022-11-14T17:24:39;6.97;;;5.93;;
20369;SDS011;10344;47.592;9.600;2022-11-14T17:27:09;7.43;;;5.55;;
20369;SDS011;10344;47.592;9.600;2022-11-14T17:29:36;6.82;;;5.45;;
20369;SDS011;10344;47.592;9.600;2022-11-14T17:32:05;7.00;;;6.30;;
20369;SDS011;10344;47.592;9.600;2022-11-14T17:34:33;6.68;;;5.88;;
20369;SDS011;10344;47.592;9.600;2022-11-14T17:36:58;6.53;;;5.67;;
20369;SDS011;10344;47.592;9.600;2022-11-14T17:39:24;7.40;;;5.70;;
20369;SDS011;10344;47.592;9.600;2022-11-14T17:41:50;6.90;;;5.97;;
20369;SDS011;10344;47.592;9.600;2022-11-14T17:44:15;5.07;;;4.55;;
20369;SDS011;10344;47.592;9.600;2022-11-14T17:46:41;6.53;;;5.30;;
20369;SDS011;10344;47.592;9.600;2022-11-14T17:49:10;6.60;;;5.90;;
20369;SDS011;10344;47.592;9.600;2022-11-14T17:51:35;5.90;;;5.37;;
20369;SDS011;10344;47.592;9.600;2022-11-14T17:54:01;5.10;;;4.60;;
20369;SDS011;10344;47.592;9.600;2022-11-14T17:56:27;5.65;;;4.90;;
20369;SDS011;10344;47.592;9.600;2022-11-14T17:58:52;5.88;;;5.18;;
20369;SDS011;10344;47.592;9.600;2022-11-14T18:01:19;5.37;;;4.63;;
20369;SDS011;10344;47.592;9.600;2022-11-14T18:03:48;4.70;;;4.13;;
20369;SDS011;10344;47.592;9.600;2022-11-14T18:06:18;4.53;;;4.13;;
20369;SDS011;10344;47.592;9.600;2022-11-14T18:08:44;5.18;;;4.13;;
20369;SDS011;10344;47.592;9.600;2022-11-14T18:11:11;4.53;;;3.90;;
20369;SDS011;10344;47.592;9.600;2022-11-14T18:13:38;4.13;;;3.78;;
20369;SDS011;10344;47.592;9.600;2022-11-14T18:16:09;4.37;;;3.97;;
20369;SDS011;10344;47.592;9.600;2022-11-14T18:18:37;4.40;;;3.60;;
20369;SDS011;10344;47.592;9.600;2022-11-14T18:21:05;3.70;;;3.40;;
20369;SDS011;10344;47.592;9.600;2022-11-14T18:23:33;4.22;;;3.22;;
20369;SDS011;10344;47.592;9.600;2022-11-14T18:26:12;4.68;;;3.50;;
20369;SDS011;10344;47.592;9.600;2022-11-14T18:28:39;3.88;;;3.58;;
20369;SDS011;10344;47.592;9.600;2022-11-14T18:31:07;3.23;;;2.93;;
20369;SDS011;10344;47.592;9.600;2022-11-14T18:33:35;3.63;;;3.10;;
20369;SDS011;10344;47.592;9.600;2022-11-14T18:39:05;3.33;;;3.03;;
20369;SDS011;10344;47.592;9.600;2022-11-14T18:41:31;3.30;;;3.00;;
20369;SDS011;10344;47.592;9.600;2022-11-14T18:43:59;3.22;;;2.70;;
20369;SDS011;10344;47.592;9.600;2022-11-14T18:46:29;4.43;;;3.47;;
20369;SDS011;10344;47.592;9.600;2022-11-14T18:48:56;4.38;;;3.97;;
20369;SDS011;10344;47.592;9.600;2022-11-14T18:51:23;4.18;;;3.70;;
20369;SDS011;10344;47.592;9.600;2022-11-14T18:53:51;3.50;;;3.13;;
20369;SDS011;10344;47.592;9.600;2022-11-14T18:56:20;3.70;;;3.03;;
20369;SDS011;10344;47.592;9.600;2022-11-14T18:58:46;3.00;;;2.58;;
20369;SDS011;10344;47.592;9.600;2022-11-14T19:01:19;3.60;;;2.85;;
20369;SDS011;10344;47.592;9.600;2022-11-14T19:04:03;3.05;;;2.42;;
20369;SDS011;10344;47.592;9.600;2022-11-14T19:06:31;3.13;;;2.75;;
20369;SDS011;10344;47.592;9.600;2022-11-14T19:09:02;3.05;;;2.40;;
20369;SDS011;10344;47.592;9.600;2022-11-14T19:11:30;3.28;;;2.67;;
20369;SDS011;10344;47.592;9.600;2022-11-14T19:14:14;3.60;;;3.00;;
20369;SDS011;10344;47.592;9.600;2022-11-14T19:16:40;3.60;;;2.63;;
20369;SDS011;10344;47.592;9.600;2022-11-14T19:19:11;3.20;;;2.60;;
20369;SDS011;10344;47.592;9.600;2022-11-14T19:21:37;3.47;;;2.92;;
20369;SDS011;10344;47.592;9.600;2022-11-14T19:24:03;3.28;;;2.95;;
20369;SDS011;10344;47.592;9.600;2022-11-14T19:26:29;3.83;;;2.78;;
20369;SDS011;10344;47.592;9.600;2022-11-14T19:28:55;2.85;;;2.50;;
20369;SDS011;10344;47.592;9.600;2022-11-14T19:31:28;3.17;;;2.47;;
20369;SDS011;10344;47.592;9.600;2022-11-14T19:33:56;2.67;;;2.28;;
20369;SDS011;10344;47.592;9.600;2022-11-14T19:36:23;2.70;;;2.30;;
20369;SDS011;10344;47.592;9.600;2022-11-14T19:38:52;2.40;;;2.20;;
20369;SDS011;10344;47.592;9.600;2022-11-14T19:41:19;2.30;;;2.10;;
20369;SDS011;10344;47.592;9.600;2022-11-14T19:43:46;2.80;;;2.38;;
20369;SDS011;10344;47.592;9.600;2022-11-14T19:46:12;2.70;;;2.50;;
20369;SDS011;10344;47.592;9.600;2022-11-14T19:48:41;3.28;;;2.30;;
20369;SDS011;10344;47.592;9.600;2022-11-14T19:51:10;2.88;;;2.60;;
20369;SDS011;10344;47.592;9.600;2022-11-14T19:53:43;2.67;;;2.47;;
20369;SDS011;10344;47.592;9.600;2022-11-14T19:56:11;2.40;;;2.20;;
20369;SDS011;10344;47.592;9.600;2022-11-14T19:58:39;2.40;;;2.20;;
20369;SDS011;10344;47.592;9.600;2022-11-14T20:01:09;2.30;;;2.10;;
20369;SDS011;10344;47.592;9.600;2022-11-14T20:03:39;3.17;;;2.13;;
20369;SDS011;10344;47.592;9.600;2022-11-14T20:06:16;2.47;;;2.10;;
20369;SDS011;10344;47.592;9.600;2022-11-14T20:08:45;2.00;;;1.80;;
20369;SDS011;10344;47.592;9.600;2022-11-14T20:11:11;2.83;;;2.60;;
20369;SDS011;10344;47.592;9.600;2022-11-14T20:13:39;2.45;;;2.10;;
20369;SDS011;10344;47.592;9.600;2022-11-14T20:18:55;2.90;;;2.30;;
20369;SDS011;10344;47.592;9.600;2022-11-14T20:21:27;3.03;;;2.30;;
20369;SDS011;10344;47.592;9.600;2022-11-14T20:23:54;2.55;;;2.05;;
20369;SDS011;10344;47.592;9.600;2022-11-14T20:26:23;3.60;;;2.35;;
20369;SDS011;10344;47.592;9.600;2022-11-14T20:28:49;2.87;;;2.20;;
20369;SDS011;10344;47.592;9.600;2022-11-14T20:31:24;2.95;;;2.22;;
20369;SDS011;10344;47.592;9.600;2022-11-14T20:33:51;2.38;;;2.15;;
20369;SDS011;10344;47.592;9.600;2022-11-14T20:36:19;2.65;;;2.25;;
20369;SDS011;10344;47.592;9.600;2022-11-14T20:38:46;2.50;;;2.28;;
20369;SDS011;10344;47.592;9.600;2022-11-14T20:41:12;2.70;;;2.50;;
20369;SDS011;10344;47.592;9.600;2022-11-14T20:43:38;2.50;;;2.30;;
20369;SDS011;10344;47.592;9.600;2022-11-14T20:46:06;2.53;;;2.33;;
20369;SDS011;10344;47.592;9.600;2022-11-14T20:48:36;2.50;;;2.28;;
20369;SDS011;10344;47.592;9.600;2022-11-14T20:53:39;2.40;;;2.20;;
20369;SDS011;10344;47.592;9.600;2022-11-14T20:56:06;2.85;;;2.42;;
20369;SDS011;10344;47.592;9.600;2022-11-14T20:58:34;3.10;;;2.30;;
20369;SDS011;10344;47.592;9.600;2022-11-14T21:01:00;3.50;;;2.30;;
20369;SDS011;10344;47.592;9.600;2022-11-14T21:03:26;2.47;;;2.28;;
20369;SDS011;10344;47.592;9.600;2022-11-14T21:05:52;3.00;;;2.67;;
20369;SDS011;10344;47.592;9.600;2022-11-14T21:08:18;2.60;;;2.40;;
20369;SDS011;10344;47.592;9.600;2022-11-14T21:10:45;3.70;;;2.80;;
20369;SDS011;10344;47.592;9.600;2022-11-14T21:13:13;3.28;;;2.97;;
20369;SDS011;10344;47.592;9.600;2022-11-14T21:16:04;2.67;;;2.33;;
20369;SDS011;10344;47.592;9.600;2022-11-14T21:18:34;2.87;;;2.50;;
20369;SDS011;10344;47.592;9.600;2022-11-14T21:21:10;3.33;;;2.70;;
20369;SDS011;10344;47.592;9.600;2022-11-14T21:23:37;3.17;;;2.50;;
20369;SDS011;10344;47.592;9.600;2022-11-14T21:28:34;3.13;;;2.83;;
20369;SDS011;10344;47.592;9.600;2022-11-14T21:33:46;3.13;;;2.83;;
20369;SDS011;10344;47.592;9.600;2022-11-14T21:36:13;2.60;;;2.40;;
20369;SDS011;10344;47.592;9.600;2022-11-14T21:38:40;2.65;;;2.45;;
20369;SDS011;10344;47.592;9.600;2022-11-14T21:41:09;3.17;;;2.60;;
20369;SDS011;10344;47.592;9.600;2022-11-14T21:43:36;2.83;;;2.58;;
20369;SDS011;10344;47.592;9.600;2022-11-14T21:46:05;3.20;;;2.60;;
20369;SDS011;10344;47.592;9.600;2022-11-14T21:48:33;2.80;;;2.50;;
20369;SDS011;10344;47.592;9.600;2022-11-14T21:51:07;3.10;;;2.80;;
20369;SDS011;10344;47.592;9.600;2022-11-14T21:53:37;3.55;;;2.60;;
20369;SDS011;10344;47.592;9.600;2022-11-14T21:58:55;3.10;;;2.80;;
20369;SDS011;10344;47.592;9.600;2022-11-14T22:01:37;3.08;;;2.58;;
20369;SDS011;10344;47.592;9.600;2022-11-14T22:04:26;3.15;;;2.85;;
20369;SDS011;10344;47.592;9.600;2022-11-14T22:06:52;2.95;;;2.75;;
20369;SDS011;10344;47.592;9.600;2022-11-14T22:09:18;2.75;;;2.55;;
20369;SDS011;10344;47.592;9.600;2022-11-14T22:11:44;2.80;;;2.35;;
20369;SDS011;10344;47.592;9.600;2022-11-14T22:14:10;2.78;;;2.58;;
20369;SDS011;10344;47.592;9.600;2022-11-14T22:16:35;3.97;;;2.87;;
20369;SDS011;10344;47.592;9.600;2022-11-14T22:19:01;2.93;;;2.60;;
20369;SDS011;10344;47.592;9.600;2022-11-14T22:21:27;2.75;;;2.33;;
20369;SDS011;10344;47.592;9.600;2022-11-14T22:23:52;3.20;;;2.90;;
20369;SDS011;10344;47.592;9.600;2022-11-14T22:26:21;3.13;;;2.50;;
20369;SDS011;10344;47.592;9.600;2022-11-14T22:28:51;3.00;;;2.70;;
20369;SDS011;10344;47.592;9.600;2022-11-14T22:31:18;3.65;;;2.40;;
20369;SDS011;10344;47.592;9.600;2022-11-14T22:33:51;2.97;;;2.70;;
20369;SDS011;10344;47.592;9.600;2022-11-14T22:36:21;3.00;;;2.70;;
20369;SDS011;10344;47.592;9.600;2022-11-14T22:38:49;2.60;;;2.30;;
20369;SDS011;10344;47.592;9.600;2022-11-14T22:41:20;2.75;;;2.40;;
20369;SDS011;10344;47.592;9.600;2022-11-14T22:43:52;2.92;;;2.40;;
20369;SDS011;10344;47.592;9.600;2022-11-14T22:46:18;4.63;;;2.60;;
20369;SDS011;10344;47.592;9.600;2022-11-14T22:48:46;3.15;;;2.33;;
20369;SDS011;10344;47.592;9.600;2022-11-14T22:51:20;2.40;;;2.20;;
20369;SDS011;10344;47.592;9.600;2022-11-14T22:53:49;2.70;;;2.45;;
20369;SDS011;10344;47.592;9.600;2022-11-14T22:56:18;2.60;;;2.40;;
20369;SDS011;10344;47.592;9.600;2022-11-14T22:58:48;2.80;;;2.42;;
20369;SDS011;10344;47.592;9.600;2022-11-14T23:01:22;3.42;;;2.67;;
20369;SDS011;10344;47.592;9.600;2022-11-14T23:03:52;4.00;;;2.30;;
20369;SDS011;10344;47.592;9.600;2022-11-14T23:06:25;3.05;;;2.60;;
20369;SDS011;10344;47.592;9.600;2022-11-14T23:08:50;2.58;;;2.30;;
20369;SDS011;10344;47.592;9.600;2022-11-14T23:11:27;2.83;;;2.53;;
20369;SDS011;10344;47.592;9.600;2022-11-14T23:13:54;3.00;;;2.70;;
20369;SDS011;10344;47.592;9.600;2022-11-14T23:16:27;2.63;;;2.40;;
20369;SDS011;10344;47.592;9.600;2022-11-14T23:18:56;2.87;;;2.50;;
20369;SDS011;10344;47.592;9.600;2022-11-14T23:21:24;2.50;;;2.30;;
20369;SDS011;10344;47.592;9.600;2022-11-14T23:23:58;2.63;;;2.30;;
20369;SDS011;10344;47.592;9.600;2022-11-14T23:26:29;2.83;;;2.42;;
20369;SDS011;10344;47.592;9.600;2022-11-14T23:29:00;3.40;;;3.08;;
20369;SDS011;10344;47.592;9.600;2022-11-14T23:31:26;2.90;;;2.60;;
20369;SDS011;10344;47.592;9.600;2022-11-14T23:33:53;3.17;;;2.78;;
20369;SDS011;10344;47.592;9.600;2022-11-14T23:36:19;3.60;;;2.70;;
20369;SDS011;10344;47.592;9.600;2022-11-14T23:38:50;3.53;;;2.70;;
20369;SDS011;10344;47.592;9.600;2022-11-14T23:41:19;3.10;;;2.80;;
20369;SDS011;10344;47.592;9.600;2022-11-14T23:43:46;2.95;;;2.67;;
20369;SDS011;10344;47.592;9.600;2022-11-14T23:46:15;3.63;;;3.20;;
20369;SDS011;10344;47.592;9.600;2022-11-14T23:48:40;3.90;;;3.50;;
20369;SDS011;10344;47.592;9.600;2022-11-14T23:51:06;3.60;;;3.30;;
20369;SDS011;10344;47.592;9.600;2022-11-14T23:53:31;3.80;;;3.40;;
20369;SDS011;10344;47.592;9.600;2022-11-14T23:55:57;4.05;;;3.60;;
20369;SDS011;10344;47.592;9.600;2022-11-14T23:58:25;4.57;;;3.70;;
